sensor_id;sensor_type;location;lat;lon;timestamp;pressure;altitude;pressure_sealevel;temperature;humidity
20971;BME280;10644;48.834;10.088;2022-07-06T00:01:31;97166.69;;;23.37;42.79
20971;BME280;10644;48.834;10.088;2022-07-06T00:04:03;97162.44;;;23.36;42.30
20971;BME280;10644;48.834;10.088;2022-07-06T00:06:30;97166.13;;;23.25;42.68
20971;BME280;10644;48.834;10.088;2022-07-06T00:08:55;97165.97;;;23.27;43.32
20971;BME280;10644;48.834;10.088;2022-07-06T00:11:23;97170.50;;;23.25;43.31
20971;BME280;10644;48.834;10.088;2022-07-06T00:13:49;97168.72;;;23.25;42.90
20971;BME280;10644;48.834;10.088;2022-07-06T00:16:14;97170.13;;;23.20;43.16
20971;BME280;10644;48.834;10.088;2022-07-06T00:18:40;97165.88;;;23.19;43.62
20971;BME280;10644;48.834;10.088;2022-07-06T00:21:06;97167.03;;;23.07;43.84
20971;BME280;10644;48.834;10.088;2022-07-06T00:23:37;97169.47;;;23.18;43.21
20971;BME280;10644;48.834;10.088;2022-07-06T00:26:03;97159.56;;;23.12;43.02
20971;BME280;10644;48.834;10.088;2022-07-06T00:28:28;97172.06;;;23.18;43.15
20971;BME280;10644;48.834;10.088;2022-07-06T00:30:57;97166.41;;;23.22;42.60
20971;BME280;10644;48.834;10.088;2022-07-06T00:33:22;97169.53;;;23.26;42.38
20971;BME280;10644;48.834;10.088;2022-07-06T00:35:48;97158.56;;;23.22;42.54
20971;BME280;10644;48.834;10.088;2022-07-06T00:38:14;97165.66;;;23.03;42.75
20971;BME280;10644;48.834;10.088;2022-07-06T00:40:41;97167.63;;;23.01;42.88
20971;BME280;10644;48.834;10.088;2022-07-06T00:43:06;97153.56;;;23.02;42.91
20971;BME280;10644;48.834;10.088;2022-07-06T00:45:32;97165.66;;;23.03;42.62
20971;BME280;10644;48.834;10.088;2022-07-06T00:47:57;97166.56;;;22.94;42.99
20971;BME280;10644;48.834;10.088;2022-07-06T00:50:22;97156.38;;;22.91;43.06
20971;BME280;10644;48.834;10.088;2022-07-06T00:52:51;97174.78;;;22.99;43.26
20971;BME280;10644;48.834;10.088;2022-07-06T00:55:27;97163.22;;;23.01;42.84
20971;BME280;10644;48.834;10.088;2022-07-06T00:57:58;97158.13;;;23.00;43.15
20971;BME280;10644;48.834;10.088;2022-07-06T01:00:38;97162.84;;;22.96;43.30
20971;BME280;10644;48.834;10.088;2022-07-06T01:03:11;97157.34;;;22.90;43.89
20971;BME280;10644;48.834;10.088;2022-07-06T01:05:37;97169.97;;;22.77;44.38
20971;BME280;10644;48.834;10.088;2022-07-06T01:08:07;97165.59;;;22.68;44.36
20971;BME280;10644;48.834;10.088;2022-07-06T01:10:32;97166.16;;;22.62;44.78
20971;BME280;10644;48.834;10.088;2022-07-06T01:12:58;97163.94;;;22.67;44.70
20971;BME280;10644;48.834;10.088;2022-07-06T01:15:25;97164.34;;;22.72;44.46
20971;BME280;10644;48.834;10.088;2022-07-06T01:18:23;97167.47;;;22.75;43.84
20971;BME280;10644;48.834;10.088;2022-07-06T01:21:09;97167.22;;;22.69;44.11
20971;BME280;10644;48.834;10.088;2022-07-06T01:23:39;97147.81;;;22.54;44.62
20971;BME280;10644;48.834;10.088;2022-07-06T01:26:05;97171.56;;;22.51;45.15
20971;BME280;10644;48.834;10.088;2022-07-06T01:28:36;97160.47;;;22.49;44.72
20971;BME280;10644;48.834;10.088;2022-07-06T01:31:19;97168.69;;;22.54;45.03
20971;BME280;10644;48.834;10.088;2022-07-06T01:33:45;97166.81;;;22.27;45.88
20971;BME280;10644;48.834;10.088;2022-07-06T01:36:10;97173.97;;;22.25;45.84
20971;BME280;10644;48.834;10.088;2022-07-06T01:38:53;97175.91;;;22.23;45.06
20971;BME280;10644;48.834;10.088;2022-07-06T01:41:19;97177.28;;;22.18;45.38
20971;BME280;10644;48.834;10.088;2022-07-06T01:43:45;97174.06;;;21.87;46.23
20971;BME280;10644;48.834;10.088;2022-07-06T01:46:11;97177.66;;;21.58;47.10
20971;BME280;10644;48.834;10.088;2022-07-06T01:48:45;97172.16;;;21.51;46.47
20971;BME280;10644;48.834;10.088;2022-07-06T01:51:20;97167.06;;;21.50;46.45
20971;BME280;10644;48.834;10.088;2022-07-06T01:53:46;97173.22;;;21.58;47.01
20971;BME280;10644;48.834;10.088;2022-07-06T01:56:14;97164.75;;;21.47;46.83
20971;BME280;10644;48.834;10.088;2022-07-06T01:58:42;97171.47;;;21.59;46.92
20971;BME280;10644;48.834;10.088;2022-07-06T02:01:10;97165.00;;;21.63;46.70
20971;BME280;10644;48.834;10.088;2022-07-06T02:03:35;97160.91;;;21.70;46.62
20971;BME280;10644;48.834;10.088;2022-07-06T02:06:01;97166.66;;;21.64;46.58
20971;BME280;10644;48.834;10.088;2022-07-06T02:08:27;97164.84;;;21.64;46.67
20971;BME280;10644;48.834;10.088;2022-07-06T02:10:53;97163.75;;;21.67;46.83
20971;BME280;10644;48.834;10.088;2022-07-06T02:13:31;97162.84;;;21.77;45.89
20971;BME280;10644;48.834;10.088;2022-07-06T02:15:57;97175.44;;;21.82;46.36
20971;BME280;10644;48.834;10.088;2022-07-06T02:18:22;97162.41;;;21.82;46.24
20971;BME280;10644;48.834;10.088;2022-07-06T02:20:48;97161.16;;;21.86;46.29
20971;BME280;10644;48.834;10.088;2022-07-06T02:23:28;97164.03;;;21.83;45.60
20971;BME280;10644;48.834;10.088;2022-07-06T02:25:54;97174.63;;;21.91;46.08
20971;BME280;10644;48.834;10.088;2022-07-06T02:28:19;97172.94;;;21.90;46.04
20971;BME280;10644;48.834;10.088;2022-07-06T02:30:44;97177.59;;;21.96;45.83
20971;BME280;10644;48.834;10.088;2022-07-06T02:33:10;97178.72;;;22.03;45.72
20971;BME280;10644;48.834;10.088;2022-07-06T02:35:35;97178.97;;;22.00;45.87
20971;BME280;10644;48.834;10.088;2022-07-06T02:38:02;97183.09;;;22.02;45.63
20971;BME280;10644;48.834;10.088;2022-07-06T02:40:30;97179.81;;;22.00;45.83
20971;BME280;10644;48.834;10.088;2022-07-06T02:42:55;97182.44;;;22.00;45.69
20971;BME280;10644;48.834;10.088;2022-07-06T02:45:28;97180.94;;;21.98;45.21
20971;BME280;10644;48.834;10.088;2022-07-06T02:47:54;97178.47;;;21.87;45.96
20971;BME280;10644;48.834;10.088;2022-07-06T02:50:43;97179.28;;;21.87;45.56
20971;BME280;10644;48.834;10.088;2022-07-06T02:53:09;97168.16;;;21.85;45.77
20971;BME280;10644;48.834;10.088;2022-07-06T02:55:34;97187.13;;;21.97;45.93
20971;BME280;10644;48.834;10.088;2022-07-06T02:57:59;97179.56;;;21.94;45.76
20971;BME280;10644;48.834;10.088;2022-07-06T03:00:25;97184.81;;;21.75;46.42
20971;BME280;10644;48.834;10.088;2022-07-06T03:02:50;97196.16;;;21.64;46.80
20971;BME280;10644;48.834;10.088;2022-07-06T03:05:16;97189.75;;;21.68;46.79
20971;BME280;10644;48.834;10.088;2022-07-06T03:07:49;97196.88;;;21.76;46.38
20971;BME280;10644;48.834;10.088;2022-07-06T03:10:24;97203.72;;;21.86;46.12
20971;BME280;10644;48.834;10.088;2022-07-06T03:12:51;97195.91;;;21.77;46.29
20971;BME280;10644;48.834;10.088;2022-07-06T03:15:16;97202.88;;;21.48;46.87
20971;BME280;10644;48.834;10.088;2022-07-06T03:17:43;97202.06;;;21.38;46.87
20971;BME280;10644;48.834;10.088;2022-07-06T03:20:12;97207.81;;;21.51;46.61
20971;BME280;10644;48.834;10.088;2022-07-06T03:22:37;97199.59;;;21.55;46.52
20971;BME280;10644;48.834;10.088;2022-07-06T03:25:03;97203.72;;;21.58;46.49
20971;BME280;10644;48.834;10.088;2022-07-06T03:27:30;97201.78;;;21.60;46.37
20971;BME280;10644;48.834;10.088;2022-07-06T03:29:59;97200.16;;;21.59;46.52
20971;BME280;10644;48.834;10.088;2022-07-06T03:32:25;97202.34;;;21.44;46.83
20971;BME280;10644;48.834;10.088;2022-07-06T03:35:02;97211.50;;;21.48;46.41
20971;BME280;10644;48.834;10.088;2022-07-06T03:37:36;97208.09;;;21.57;46.24
20971;BME280;10644;48.834;10.088;2022-07-06T03:40:13;97212.91;;;21.62;46.14
20971;BME280;10644;48.834;10.088;2022-07-06T03:42:50;97207.16;;;21.68;46.11
20971;BME280;10644;48.834;10.088;2022-07-06T03:45:15;97207.56;;;21.73;46.29
20971;BME280;10644;48.834;10.088;2022-07-06T03:47:47;97217.47;;;21.79;46.08
20971;BME280;10644;48.834;10.088;2022-07-06T03:50:15;97213.91;;;21.80;46.16
20971;BME280;10644;48.834;10.088;2022-07-06T03:53:04;97210.75;;;21.86;45.78
20971;BME280;10644;48.834;10.088;2022-07-06T03:55:43;97204.56;;;21.87;45.72
20971;BME280;10644;48.834;10.088;2022-07-06T03:58:09;97210.88;;;21.84;46.14
20971;BME280;10644;48.834;10.088;2022-07-06T04:00:40;97207.56;;;21.82;45.95
20971;BME280;10644;48.834;10.088;2022-07-06T04:03:07;97211.69;;;21.85;46.13
20971;BME280;10644;48.834;10.088;2022-07-06T04:05:42;97212.66;;;21.84;46.15
20971;BME280;10644;48.834;10.088;2022-07-06T04:08:08;97208.69;;;21.80;46.04
20971;BME280;10644;48.834;10.088;2022-07-06T04:10:33;97210.59;;;21.78;46.23
20971;BME280;10644;48.834;10.088;2022-07-06T04:13:01;97210.72;;;21.76;46.24
20971;BME280;10644;48.834;10.088;2022-07-06T04:15:32;97216.38;;;21.91;45.92
20971;BME280;10644;48.834;10.088;2022-07-06T04:17:58;97210.88;;;21.94;45.98
20971;BME280;10644;48.834;10.088;2022-07-06T04:20:30;97211.84;;;21.93;45.81
20971;BME280;10644;48.834;10.088;2022-07-06T04:22:56;97221.03;;;21.97;45.96
20971;BME280;10644;48.834;10.088;2022-07-06T04:25:21;97225.41;;;21.96;45.96
20971;BME280;10644;48.834;10.088;2022-07-06T04:27:54;97215.53;;;22.00;45.60
20971;BME280;10644;48.834;10.088;2022-07-06T04:30:25;97231.16;;;22.09;45.96
20971;BME280;10644;48.834;10.088;2022-07-06T04:32:52;97225.94;;;22.09;45.74
20971;BME280;10644;48.834;10.088;2022-07-06T04:35:19;97226.47;;;22.13;45.46
20971;BME280;10644;48.834;10.088;2022-07-06T04:37:44;97225.41;;;22.06;45.75
20971;BME280;10644;48.834;10.088;2022-07-06T04:40:11;97225.53;;;22.04;45.67
20971;BME280;10644;48.834;10.088;2022-07-06T04:42:46;97239.16;;;22.08;45.80
20971;BME280;10644;48.834;10.088;2022-07-06T04:45:14;97236.38;;;22.09;46.13
20971;BME280;10644;48.834;10.088;2022-07-06T04:47:40;97243.81;;;22.04;46.15
20971;BME280;10644;48.834;10.088;2022-07-06T04:50:07;97236.41;;;22.00;45.92
20971;BME280;10644;48.834;10.088;2022-07-06T04:52:34;97242.47;;;22.00;46.30
20971;BME280;10644;48.834;10.088;2022-07-06T04:54:59;97243.28;;;21.91;46.31
20971;BME280;10644;48.834;10.088;2022-07-06T04:57:26;97246.88;;;21.81;46.39
20971;BME280;10644;48.834;10.088;2022-07-06T04:59:57;97236.78;;;21.67;46.89
20971;BME280;10644;48.834;10.088;2022-07-06T05:02:25;97242.97;;;21.66;47.14
20971;BME280;10644;48.834;10.088;2022-07-06T05:05:09;97250.50;;;21.50;46.98
20971;BME280;10644;48.834;10.088;2022-07-06T05:07:36;97257.53;;;21.59;47.81
20971;BME280;10644;48.834;10.088;2022-07-06T05:10:09;97261.34;;;21.55;47.41
20971;BME280;10644;48.834;10.088;2022-07-06T05:12:35;97267.00;;;21.60;47.49
20971;BME280;10644;48.834;10.088;2022-07-06T05:15:20;97254.53;;;21.73;46.96
20971;BME280;10644;48.834;10.088;2022-07-06T05:18:03;97257.97;;;21.83;46.82
20971;BME280;10644;48.834;10.088;2022-07-06T05:20:31;97263.84;;;21.66;47.38
20971;BME280;10644;48.834;10.088;2022-07-06T05:23:03;97274.56;;;21.63;48.70
20971;BME280;10644;48.834;10.088;2022-07-06T05:25:31;97262.03;;;21.57;48.42
20971;BME280;10644;48.834;10.088;2022-07-06T05:28:02;97260.81;;;21.61;48.22
20971;BME280;10644;48.834;10.088;2022-07-06T05:30:27;97253.66;;;21.44;48.77
20971;BME280;10644;48.834;10.088;2022-07-06T05:32:53;97261.06;;;21.39;48.83
20971;BME280;10644;48.834;10.088;2022-07-06T05:35:23;97260.25;;;21.48;48.12
20971;BME280;10644;48.834;10.088;2022-07-06T05:37:48;97255.34;;;21.54;48.18
20971;BME280;10644;48.834;10.088;2022-07-06T05:40:13;97264.63;;;21.47;48.79
20971;BME280;10644;48.834;10.088;2022-07-06T05:42:47;97259.69;;;21.44;48.18
20971;BME280;10644;48.834;10.088;2022-07-06T05:45:13;97263.28;;;21.43;48.39
20971;BME280;10644;48.834;10.088;2022-07-06T05:47:41;97266.81;;;21.42;48.78
20971;BME280;10644;48.834;10.088;2022-07-06T05:50:27;97272.63;;;21.46;48.71
20971;BME280;10644;48.834;10.088;2022-07-06T05:53:00;97269.97;;;21.36;48.54
20971;BME280;10644;48.834;10.088;2022-07-06T05:55:36;97273.16;;;21.49;48.25
20971;BME280;10644;48.834;10.088;2022-07-06T05:58:09;97276.88;;;21.56;48.09
20971;BME280;10644;48.834;10.088;2022-07-06T06:00:41;97278.97;;;21.72;48.10
20971;BME280;10644;48.834;10.088;2022-07-06T06:03:12;97282.28;;;21.83;48.02
20971;BME280;10644;48.834;10.088;2022-07-06T06:05:37;97278.97;;;21.81;48.00
20971;BME280;10644;48.834;10.088;2022-07-06T06:08:03;97274.72;;;21.90;48.11
20971;BME280;10644;48.834;10.088;2022-07-06T06:10:45;97276.41;;;21.91;47.93
20971;BME280;10644;48.834;10.088;2022-07-06T06:13:13;97266.09;;;21.89;48.13
20971;BME280;10644;48.834;10.088;2022-07-06T06:15:38;97284.59;;;21.77;47.16
20971;BME280;10644;48.834;10.088;2022-07-06T06:18:06;97273.75;;;21.72;46.95
20971;BME280;10644;48.834;10.088;2022-07-06T06:20:47;97285.03;;;21.82;47.14
20971;BME280;10644;48.834;10.088;2022-07-06T06:23:14;97281.31;;;21.75;47.03
20971;BME280;10644;48.834;10.088;2022-07-06T06:25:39;97273.50;;;21.75;47.33
20971;BME280;10644;48.834;10.088;2022-07-06T06:28:14;97283.78;;;21.76;47.04
20971;BME280;10644;48.834;10.088;2022-07-06T06:30:39;97276.09;;;21.84;46.82
20971;BME280;10644;48.834;10.088;2022-07-06T06:33:10;97280.47;;;21.93;46.88
20971;BME280;10644;48.834;10.088;2022-07-06T06:35:51;97274.03;;;22.16;46.28
20971;BME280;10644;48.834;10.088;2022-07-06T06:38:20;97272.38;;;22.06;45.16
20971;BME280;10644;48.834;10.088;2022-07-06T06:40:52;97271.56;;;22.15;45.68
20971;BME280;10644;48.834;10.088;2022-07-06T06:43:18;97258.09;;;22.19;45.68
20971;BME280;10644;48.834;10.088;2022-07-06T06:45:43;97273.88;;;22.27;45.91
20971;BME280;10644;48.834;10.088;2022-07-06T06:48:12;97264.13;;;22.20;45.16
20971;BME280;10644;48.834;10.088;2022-07-06T06:50:37;97275.53;;;22.19;44.68
20971;BME280;10644;48.834;10.088;2022-07-06T06:53:14;97274.03;;;22.07;45.39
20971;BME280;10644;48.834;10.088;2022-07-06T06:55:49;97271.28;;;22.18;45.40
20971;BME280;10644;48.834;10.088;2022-07-06T06:58:15;97274.28;;;22.23;45.93
20971;BME280;10644;48.834;10.088;2022-07-06T07:00:48;97276.78;;;22.24;45.46
20971;BME280;10644;48.834;10.088;2022-07-06T07:03:16;97266.31;;;22.24;45.04
20971;BME280;10644;48.834;10.088;2022-07-06T07:06:04;97275.09;;;22.33;44.99
20971;BME280;10644;48.834;10.088;2022-07-06T07:08:29;97265.75;;;22.40;44.94
20971;BME280;10644;48.834;10.088;2022-07-06T07:11:09;97265.06;;;22.47;45.19
20971;BME280;10644;48.834;10.088;2022-07-06T07:13:36;97266.69;;;22.58;44.52
20971;BME280;10644;48.834;10.088;2022-07-06T07:16:35;97269.69;;;22.63;44.92
20971;BME280;10644;48.834;10.088;2022-07-06T07:19:01;97269.88;;;22.61;44.29
20971;BME280;10644;48.834;10.088;2022-07-06T07:21:33;97270.97;;;22.49;44.59
20971;BME280;10644;48.834;10.088;2022-07-06T07:23:58;97270.44;;;22.46;44.41
20971;BME280;10644;48.834;10.088;2022-07-06T07:26:26;97266.16;;;22.54;44.68
20971;BME280;10644;48.834;10.088;2022-07-06T07:28:51;97262.97;;;22.70;44.39
20971;BME280;10644;48.834;10.088;2022-07-06T07:31:30;97270.41;;;22.65;44.12
20971;BME280;10644;48.834;10.088;2022-07-06T07:33:56;97264.06;;;22.58;44.20
20971;BME280;10644;48.834;10.088;2022-07-06T07:36:31;97265.41;;;22.81;44.00
20971;BME280;10644;48.834;10.088;2022-07-06T07:38:57;97273.34;;;22.89;44.36
20971;BME280;10644;48.834;10.088;2022-07-06T07:41:23;97268.09;;;22.89;43.67
20971;BME280;10644;48.834;10.088;2022-07-06T07:43:51;97263.34;;;23.02;43.65
20971;BME280;10644;48.834;10.088;2022-07-06T07:46:19;97261.72;;;23.01;43.87
20971;BME280;10644;48.834;10.088;2022-07-06T07:48:52;97263.47;;;23.19;43.80
20971;BME280;10644;48.834;10.088;2022-07-06T07:51:18;97255.56;;;23.29;43.70
20971;BME280;10644;48.834;10.088;2022-07-06T07:53:50;97261.63;;;23.29;43.40
20971;BME280;10644;48.834;10.088;2022-07-06T07:56:15;97252.50;;;23.33;43.54
20971;BME280;10644;48.834;10.088;2022-07-06T07:58:52;97256.50;;;23.55;43.34
20971;BME280;10644;48.834;10.088;2022-07-06T08:01:23;97264.50;;;23.53;42.95
20971;BME280;10644;48.834;10.088;2022-07-06T08:03:54;97263.22;;;23.57;42.87
20971;BME280;10644;48.834;10.088;2022-07-06T08:06:19;97256.25;;;23.48;42.62
20971;BME280;10644;48.834;10.088;2022-07-06T08:08:51;97254.78;;;23.63;42.57
20971;BME280;10644;48.834;10.088;2022-07-06T08:11:16;97251.66;;;23.60;42.72
20971;BME280;10644;48.834;10.088;2022-07-06T08:13:42;97262.91;;;23.60;42.80
20971;BME280;10644;48.834;10.088;2022-07-06T08:16:09;97258.72;;;23.50;42.11
20971;BME280;10644;48.834;10.088;2022-07-06T08:18:35;97258.13;;;23.56;42.55
20971;BME280;10644;48.834;10.088;2022-07-06T08:21:01;97253.44;;;23.59;42.47
20971;BME280;10644;48.834;10.088;2022-07-06T08:23:28;97255.75;;;23.80;42.25
20971;BME280;10644;48.834;10.088;2022-07-06T08:25:54;97253.66;;;23.83;41.81
20971;BME280;10644;48.834;10.088;2022-07-06T08:28:19;97249.16;;;23.76;42.10
20971;BME280;10644;48.834;10.088;2022-07-06T08:30:55;97254.28;;;23.95;41.64
20971;BME280;10644;48.834;10.088;2022-07-06T08:33:22;97258.69;;;24.12;41.26
20971;BME280;10644;48.834;10.088;2022-07-06T08:36:04;97254.81;;;23.98;41.54
20971;BME280;10644;48.834;10.088;2022-07-06T08:38:40;97259.97;;;24.08;41.31
20971;BME280;10644;48.834;10.088;2022-07-06T08:41:08;97259.00;;;24.34;41.30
20971;BME280;10644;48.834;10.088;2022-07-06T08:43:34;97258.25;;;24.42;41.08
20971;BME280;10644;48.834;10.088;2022-07-06T08:46:01;97262.50;;;24.60;40.61
20971;BME280;10644;48.834;10.088;2022-07-06T08:48:35;97252.91;;;24.77;40.89
20971;BME280;10644;48.834;10.088;2022-07-06T08:51:01;97252.91;;;24.77;40.16
20971;BME280;10644;48.834;10.088;2022-07-06T08:53:30;97248.72;;;24.84;40.04
20971;BME280;10644;48.834;10.088;2022-07-06T08:55:55;97240.66;;;24.85;40.15
20971;BME280;10644;48.834;10.088;2022-07-06T08:58:24;97247.19;;;25.07;40.16
20971;BME280;10644;48.834;10.088;2022-07-06T09:00:49;97231.66;;;25.21;39.25
20971;BME280;10644;48.834;10.088;2022-07-06T09:03:14;97253.22;;;25.41;39.29
20971;BME280;10644;48.834;10.088;2022-07-06T09:05:52;97259.78;;;25.45;39.29
20971;BME280;10644;48.834;10.088;2022-07-06T09:08:20;97243.91;;;25.62;38.76
20971;BME280;10644;48.834;10.088;2022-07-06T09:10:48;97247.06;;;25.90;38.76
20971;BME280;10644;48.834;10.088;2022-07-06T09:13:46;97249.56;;;25.91;38.56
20971;BME280;10644;48.834;10.088;2022-07-06T09:16:15;97258.72;;;25.79;38.17
20971;BME280;10644;48.834;10.088;2022-07-06T09:18:45;97248.38;;;25.70;37.55
20971;BME280;10644;48.834;10.088;2022-07-06T09:21:10;97247.44;;;25.95;37.92
20971;BME280;10644;48.834;10.088;2022-07-06T09:23:42;97252.88;;;26.17;38.13
20971;BME280;10644;48.834;10.088;2022-07-06T09:26:08;97249.41;;;26.09;37.64
20971;BME280;10644;48.834;10.088;2022-07-06T09:28:43;97259.59;;;26.28;37.04
20971;BME280;10644;48.834;10.088;2022-07-06T09:31:36;97253.84;;;26.16;37.56
20971;BME280;10644;48.834;10.088;2022-07-06T09:34:06;97253.47;;;26.43;36.81
20971;BME280;10644;48.834;10.088;2022-07-06T09:41:50;97262.16;;;26.84;35.91
20971;BME280;10644;48.834;10.088;2022-07-06T09:44:30;97256.28;;;27.28;35.90
20971;BME280;10644;48.834;10.088;2022-07-06T09:47:05;97252.59;;;27.37;34.89
20971;BME280;10644;48.834;10.088;2022-07-06T09:49:38;97254.31;;;27.22;34.94
20971;BME280;10644;48.834;10.088;2022-07-06T09:52:05;97259.78;;;27.05;36.41
20971;BME280;10644;48.834;10.088;2022-07-06T09:54:34;97255.84;;;27.09;36.51
20971;BME280;10644;48.834;10.088;2022-07-06T09:57:01;97260.78;;;27.04;36.95
20971;BME280;10644;48.834;10.088;2022-07-06T09:59:34;97262.16;;;26.84;37.27
20971;BME280;10644;48.834;10.088;2022-07-06T10:02:09;97272.56;;;27.24;37.02
20971;BME280;10644;48.834;10.088;2022-07-06T10:04:44;97271.13;;;27.05;37.04
20971;BME280;10644;48.834;10.088;2022-07-06T10:07:10;97262.91;;;27.08;36.95
20971;BME280;10644;48.834;10.088;2022-07-06T10:09:39;97259.72;;;27.29;36.36
20971;BME280;10644;48.834;10.088;2022-07-06T10:12:09;97264.78;;;26.92;36.90
20971;BME280;10644;48.834;10.088;2022-07-06T10:14:40;97263.47;;;26.88;36.14
20971;BME280;10644;48.834;10.088;2022-07-06T10:17:06;97261.81;;;26.87;35.67
20971;BME280;10644;48.834;10.088;2022-07-06T10:19:35;97249.84;;;26.84;35.82
20971;BME280;10644;48.834;10.088;2022-07-06T10:22:02;97255.84;;;27.09;35.44
20971;BME280;10644;48.834;10.088;2022-07-06T10:24:28;97257.00;;;27.06;36.22
20971;BME280;10644;48.834;10.088;2022-07-06T10:27:05;97257.53;;;26.94;36.88
20971;BME280;10644;48.834;10.088;2022-07-06T10:29:31;97270.22;;;26.82;37.30
20971;BME280;10644;48.834;10.088;2022-07-06T10:31:59;97261.34;;;26.83;37.78
20971;BME280;10644;48.834;10.088;2022-07-06T10:34:32;97260.22;;;26.70;37.55
20971;BME280;10644;48.834;10.088;2022-07-06T10:36:59;97266.47;;;26.61;37.61
20971;BME280;10644;48.834;10.088;2022-07-06T10:39:37;97269.09;;;26.77;37.74
20971;BME280;10644;48.834;10.088;2022-07-06T10:42:46;97266.59;;;26.83;37.37
20971;BME280;10644;48.834;10.088;2022-07-06T10:48:45;97266.41;;;26.85;37.13
20971;BME280;10644;48.834;10.088;2022-07-06T10:51:12;97274.63;;;26.90;36.99
20971;BME280;10644;48.834;10.088;2022-07-06T10:53:40;97267.41;;;26.84;37.62
20971;BME280;10644;48.834;10.088;2022-07-06T10:56:11;97265.31;;;26.71;37.55
20971;BME280;10644;48.834;10.088;2022-07-06T10:58:55;97269.13;;;26.37;38.67
20971;BME280;10644;48.834;10.088;2022-07-06T11:01:29;97272.09;;;26.58;37.76
20971;BME280;10644;48.834;10.088;2022-07-06T11:06:38;97263.66;;;26.78;37.71
20971;BME280;10644;48.834;10.088;2022-07-06T11:09:05;97272.59;;;27.08;37.23
20971;BME280;10644;48.834;10.088;2022-07-06T11:16:27;97253.22;;;27.78;35.94
20971;BME280;10644;48.834;10.088;2022-07-06T11:19:13;97252.28;;;27.93;36.00
20971;BME280;10644;48.834;10.088;2022-07-06T11:21:52;97267.56;;;27.67;35.60
20971;BME280;10644;48.834;10.088;2022-07-06T11:24:38;97260.78;;;27.73;35.36
20971;BME280;10644;48.834;10.088;2022-07-06T11:27:07;97260.31;;;27.69;35.00
20971;BME280;10644;48.834;10.088;2022-07-06T11:29:39;97259.50;;;27.38;35.45
20971;BME280;10644;48.834;10.088;2022-07-06T11:32:09;97260.94;;;27.18;35.10
20971;BME280;10644;48.834;10.088;2022-07-06T11:34:39;97266.03;;;27.20;35.44
20971;BME280;10644;48.834;10.088;2022-07-06T11:37:14;97252.56;;;27.45;34.68
20971;BME280;10644;48.834;10.088;2022-07-06T11:39:41;97251.97;;;27.35;35.15
20971;BME280;10644;48.834;10.088;2022-07-06T11:42:12;97256.78;;;27.16;35.15
20971;BME280;10644;48.834;10.088;2022-07-06T11:44:42;97252.75;;;27.36;35.06
20971;BME280;10644;48.834;10.088;2022-07-06T11:47:13;97242.97;;;27.52;34.34
20971;BME280;10644;48.834;10.088;2022-07-06T11:49:39;97244.16;;;27.50;34.63
20971;BME280;10644;48.834;10.088;2022-07-06T11:52:13;97243.31;;;27.49;35.15
20971;BME280;10644;48.834;10.088;2022-07-06T11:54:42;97244.28;;;27.18;35.77
20971;BME280;10644;48.834;10.088;2022-07-06T11:57:11;97241.69;;;27.02;36.20
20971;BME280;10644;48.834;10.088;2022-07-06T11:59:41;97246.03;;;26.87;36.49
20971;BME280;10644;48.834;10.088;2022-07-06T12:02:12;97243.56;;;26.85;36.39
20971;BME280;10644;48.834;10.088;2022-07-06T12:04:41;97240.09;;;26.93;36.45
20971;BME280;10644;48.834;10.088;2022-07-06T12:07:14;97244.31;;;27.02;36.23
20971;BME280;10644;48.834;10.088;2022-07-06T12:09:47;97239.72;;;27.04;35.67
20971;BME280;10644;48.834;10.088;2022-07-06T12:12:13;97229.59;;;26.93;35.51
20971;BME280;10644;48.834;10.088;2022-07-06T12:14:41;97234.00;;;26.92;35.67
20971;BME280;10644;48.834;10.088;2022-07-06T12:17:09;97224.97;;;26.95;35.51
20971;BME280;10644;48.834;10.088;2022-07-06T12:19:39;97216.25;;;27.33;35.24
20971;BME280;10644;48.834;10.088;2022-07-06T12:22:05;97219.50;;;27.43;34.60
20971;BME280;10644;48.834;10.088;2022-07-06T12:24:42;97232.44;;;27.14;34.72
20971;BME280;10644;48.834;10.088;2022-07-06T12:27:16;97222.31;;;26.95;34.97
20971;BME280;10644;48.834;10.088;2022-07-06T12:29:42;97224.94;;;27.03;34.72
20971;BME280;10644;48.834;10.088;2022-07-06T12:32:19;97213.13;;;26.99;35.03
20971;BME280;10644;48.834;10.088;2022-07-06T12:34:44;97223.16;;;26.95;34.96
20971;BME280;10644;48.834;10.088;2022-07-06T12:37:11;97231.06;;;26.95;35.40
20971;BME280;10644;48.834;10.088;2022-07-06T12:39:43;97218.81;;;27.18;34.59
20971;BME280;10644;48.834;10.088;2022-07-06T12:42:13;97217.56;;;27.37;35.02
20971;BME280;10644;48.834;10.088;2022-07-06T12:44:47;97214.81;;;27.53;35.35
20971;BME280;10644;48.834;10.088;2022-07-06T12:47:17;97221.78;;;27.46;35.08
20971;BME280;10644;48.834;10.088;2022-07-06T12:49:43;97214.47;;;27.56;34.58
20971;BME280;10644;48.834;10.088;2022-07-06T12:52:16;97213.78;;;27.62;34.77
20971;BME280;10644;48.834;10.088;2022-07-06T12:54:44;97218.66;;;27.73;34.65
20971;BME280;10644;48.834;10.088;2022-07-06T12:57:16;97209.66;;;27.90;34.76
20971;BME280;10644;48.834;10.088;2022-07-06T13:00:00;97206.06;;;28.05;34.91
20971;BME280;10644;48.834;10.088;2022-07-06T13:02:33;97218.94;;;28.23;34.49
20971;BME280;10644;48.834;10.088;2022-07-06T13:05:06;97221.06;;;28.42;33.69
20971;BME280;10644;48.834;10.088;2022-07-06T13:07:34;97219.78;;;28.38;33.06
20971;BME280;10644;48.834;10.088;2022-07-06T13:10:05;97220.63;;;28.38;32.72
20971;BME280;10644;48.834;10.088;2022-07-06T13:12:35;97227.66;;;28.23;33.65
20971;BME280;10644;48.834;10.088;2022-07-06T13:15:03;97221.19;;;27.89;33.63
20971;BME280;10644;48.834;10.088;2022-07-06T13:17:35;97215.47;;;27.55;34.24
20971;BME280;10644;48.834;10.088;2022-07-06T13:20:10;97214.94;;;27.37;34.88
20971;BME280;10644;48.834;10.088;2022-07-06T13:22:54;97215.72;;;27.45;34.96